Wetterdaten: aktuell Mittwoch, 18.09.2019 21:30
Datum Zeit Temp. A. Temp.Scheune Temp.Glash Feuchte A. LF Scheune LF Glashaus Luftdruck Regen Wind Richtung Richtung Sonnenschein Taupunkt Windchill
18.09.2019 21:30 6,6 C 10,2 C 17,7 C 67 % 54 % 40 % 1025,0 hPa 0,0 l/m 3,6 km/h SW 225 0 min 0,9 C 6,6 C
18.09.2019 20:30 7,2 C 11,9 C 18,9 C 63 % 50 % 39 % 1024,9 hPa 0,0 l/m 0,6 km/h W-SW 250 0 min 0,6 C 7,2 C
18.09.2019 19:30 10,0 C 14,2 C 20,4 C 50 % 47 % 39 % 1023,2 hPa 0,0 l/m 0,0 km/h S 175 0 min 0,1 C 10,0 C
18.09.2019 18:30 12,9 C 16,4 C 22,1 C 39 % 43 % 38 % 1022,5 hPa 0,0 l/m 5,4 km/h S-SO 165 51 min -0,7 C 12,9 C
18.09.2019 17:30 14,8 C 17,4 C 23,8 C 36 % 40 % 40 % 1022,1 hPa 0,0 l/m 13,3 km/h SO 145 58 min -0,1 C 14,8 C
18.09.2019 16:30 15,8 C 16,8 C 24,0 C 37 % 43 % 41 % 1021,9 hPa 0,0 l/m 9,7 km/h O-NO 60 61 min 1,1 C 15,8 C
18.09.2019 15:30 15,4 C 15,4 C 24,0 C 37 % 48 % 42 % 1021,9 hPa 0,0 l/m 11,5 km/h W 260 61 min 0,8 C 15,4 C
18.09.2019 14:30 15,5 C 13,4 C 23,4 C 37 % 50 % 44 % 1021,9 hPa 0,0 l/m 14,5 km/h W-SW 250 61 min 0,9 C 15,5 C
18.09.2019 13:30 14,9 C 12,7 C 22,7 C 40 % 55 % 48 % 1023,1 hPa 0,0 l/m 16,3 km/h W-SW 245 58 min 1,4 C 14,9 C
18.09.2019 12:30 13,0 C 12,1 C 21,0 C 44 % 57 % 51 % 1023,6 hPa 0,0 l/m 13,3 km/h SW 220 61 min 1,0 C 13,0 C
18.09.2019 11:30 11,0 C 11,2 C 18,2 C 48 % 59 % 53 % 1024,0 hPa 0,0 l/m 13,3 km/h W-NW 285 61 min 0,4 C 11,0 C
18.09.2019 10:30 9,9 C 10,2 C 15,4 C 55 % 62 % 53 % 1024,3 hPa 0,0 l/m 17,6 km/h S-SW 205 58 min 1,3 C 7,5 C
18.09.2019 09:30 8,9 C 9,5 C 13,9 C 60 % 63 % 50 % 1023,4 hPa 0,0 l/m 18,8 km/h S-SO 150 60 min 1,6 C 6,1 C
18.09.2019 08:30 7,9 C 9,1 C 14,2 C 68 % 67 % 49 % 1023,7 hPa 0,0 l/m 23,6 km/h S-SW 205 44 min 2,4 C 4,4 C
18.09.2019 07:30 7,2 C 9,1 C 14,6 C 70 % 66 % 50 % 1022,8 hPa 0,0 l/m 13,9 km/h W 265 0 min 2,1 C 4,6 C
18.09.2019 06:30 7,2 C 9,5 C 15,0 C 72 % 65 % 50 % 1022,8 hPa 0,0 l/m 12,7 km/h W 260 0 min 2,5 C 4,8 C
18.09.2019 05:30 7,6 C 10,0 C 15,4 C 68 % 64 % 49 % 1021,6 hPa 0,0 l/m 7,9 km/h W 275 0 min 2,1 C 6,2 C
18.09.2019 04:30 8,2 C 10,7 C 15,8 C 65 % 63 % 49 % 1021,5 hPa 0,0 l/m 6,1 km/h O 80 0 min 2,0 C 7,4 C
18.09.2019 03:30 9,3 C 11,6 C 16,2 C 60 % 61 % 50 % 1020,1 hPa 0,0 l/m 14,5 km/h S-SW 210 0 min 1,9 C 7,1 C
18.09.2019 02:30 10,8 C 12,6 C 16,7 C 65 % 65 % 53 % 1018,7 hPa 0,0 l/m 12,7 km/h S 190 0 min 4,5 C 10,8 C
18.09.2019 01:30 11,8 C 13,2 C 17,1 C 64 % 66 % 54 % 1018,5 hPa 0,0 l/m 12,1 km/h S 180 0 min 5,2 C 11,8 C
18.09.2019 00:30 12,4 C 13,6 C 17,4 C 68 % 67 % 56 % 1017,3 hPa 0,0 l/m 9,7 km/h SW 225 0 min 6,7 C 12,4 C
18.09.2019 00:00 12,2 C 13,8 C 17,7 C 70 % 68 % 56 % 1017,3 hPa 0,0 l/m 7,3 km/h W-NW 295 0 min 6,9 C 12,2 C
_ Min-Zeit 21:20 07:35 09:00 15:55 17:30 18:25 00:25 - 19:00 - - - 17:50 07:40
Minimum _ 6,6 C 9,0 C 13,9 C 34 % 40 % 38 % 1017,3 hPa - 0,0 km/h - - - -0,9 C 3,8 C
_ Max-Zeit 16:25 17:20 15:50 05:55 00:00 00:00 21:20 00:00 14:35 - - 11:00 00:00 16:25
Maximum _ 15,9 C 17,5 C 24,1 C 72 % 68 % 56 % 1025,0 hPa 0,0 l/m 26,0 km/h
S-SW
- - 8 min 6,9 C 15,9 C
Durchschnitt _ 10,9 C 12,4 C 18,6 C 55 % 57 % 47 % 1022,2 hPa #0,0 l/m 11,5 km/h S - #10:34 h 1,7 C 10,1 C